sensor_id;sensor_type;location;lat;lon;timestamp;P1;durP1;ratioP1;P2;durP2;ratioP2
40707;SDS011;26392;42.696;23.350;2022-12-07T00:01:15;54.53;;;21.90;;
40707;SDS011;26392;42.696;23.350;2022-12-07T00:03:44;48.97;;;21.13;;
40707;SDS011;26392;42.696;23.350;2022-12-07T00:06:11;48.83;;;20.27;;
40707;SDS011;26392;42.696;23.350;2022-12-07T00:08:38;48.35;;;20.15;;
40707;SDS011;26392;42.696;23.350;2022-12-07T00:11:08;47.35;;;19.30;;
40707;SDS011;26392;42.696;23.350;2022-12-07T00:13:35;54.85;;;20.45;;
40707;SDS011;26392;42.696;23.350;2022-12-07T00:16:05;46.03;;;19.83;;
40707;SDS011;26392;42.696;23.350;2022-12-07T00:18:32;49.75;;;19.33;;
40707;SDS011;26392;42.696;23.350;2022-12-07T00:21:02;49.70;;;19.85;;
40707;SDS011;26392;42.696;23.350;2022-12-07T00:23:29;52.70;;;19.02;;
40707;SDS011;26392;42.696;23.350;2022-12-07T00:25:55;47.03;;;18.67;;
40707;SDS011;26392;42.696;23.350;2022-12-07T00:28:21;47.00;;;19.88;;
40707;SDS011;26392;42.696;23.350;2022-12-07T00:30:46;51.90;;;19.30;;
40707;SDS011;26392;42.696;23.350;2022-12-07T00:33:11;40.35;;;17.30;;
40707;SDS011;26392;42.696;23.350;2022-12-07T00:35:37;43.95;;;17.33;;
40707;SDS011;26392;42.696;23.350;2022-12-07T00:38:02;38.75;;;16.02;;
40707;SDS011;26392;42.696;23.350;2022-12-07T00:40:28;41.08;;;16.98;;
40707;SDS011;26392;42.696;23.350;2022-12-07T00:42:53;40.88;;;16.67;;
40707;SDS011;26392;42.696;23.350;2022-12-07T00:45:18;46.17;;;17.63;;
40707;SDS011;26392;42.696;23.350;2022-12-07T00:47:44;42.55;;;16.98;;
40707;SDS011;26392;42.696;23.350;2022-12-07T00:50:09;45.65;;;17.38;;
40707;SDS011;26392;42.696;23.350;2022-12-07T00:52:35;41.80;;;17.40;;
40707;SDS011;26392;42.696;23.350;2022-12-07T00:55:00;47.75;;;18.17;;
40707;SDS011;26392;42.696;23.350;2022-12-07T00:57:25;41.25;;;16.75;;
40707;SDS011;26392;42.696;23.350;2022-12-07T00:59:51;39.63;;;17.55;;
40707;SDS011;26392;42.696;23.350;2022-12-07T01:02:20;42.92;;;17.02;;
40707;SDS011;26392;42.696;23.350;2022-12-07T01:04:46;41.72;;;16.75;;
40707;SDS011;26392;42.696;23.350;2022-12-07T01:07:11;48.17;;;17.90;;
40707;SDS011;26392;42.696;23.350;2022-12-07T01:09:36;39.70;;;16.73;;
40707;SDS011;26392;42.696;23.350;2022-12-07T01:12:02;37.28;;;16.70;;
40707;SDS011;26392;42.696;23.350;2022-12-07T01:14:27;49.95;;;18.27;;
40707;SDS011;26392;42.696;23.350;2022-12-07T01:16:53;48.97;;;18.98;;
40707;SDS011;26392;42.696;23.350;2022-12-07T01:19:18;55.50;;;19.98;;
40707;SDS011;26392;42.696;23.350;2022-12-07T01:21:43;53.20;;;20.60;;
40707;SDS011;26392;42.696;23.350;2022-12-07T01:24:09;51.42;;;19.90;;
40707;SDS011;26392;42.696;23.350;2022-12-07T01:26:35;55.72;;;19.55;;
40707;SDS011;26392;42.696;23.350;2022-12-07T01:29:01;50.35;;;19.70;;
40707;SDS011;26392;42.696;23.350;2022-12-07T01:31:27;54.05;;;18.55;;
40707;SDS011;26392;42.696;23.350;2022-12-07T01:33:55;45.55;;;19.08;;
40707;SDS011;26392;42.696;23.350;2022-12-07T01:36:23;46.30;;;19.23;;
40707;SDS011;26392;42.696;23.350;2022-12-07T01:38:57;54.22;;;18.75;;
40707;SDS011;26392;42.696;23.350;2022-12-07T01:41:25;41.88;;;18.40;;
40707;SDS011;26392;42.696;23.350;2022-12-07T01:47:04;44.20;;;17.23;;
40707;SDS011;26392;42.696;23.350;2022-12-07T01:54:45;46.70;;;18.70;;
40707;SDS011;26392;42.696;23.350;2022-12-07T01:57:13;41.83;;;16.88;;
40707;SDS011;26392;42.696;23.350;2022-12-07T01:59:41;39.10;;;17.25;;
40707;SDS011;26392;42.696;23.350;2022-12-07T02:02:10;50.20;;;17.73;;
40707;SDS011;26392;42.696;23.350;2022-12-07T02:04:42;45.92;;;18.67;;
40707;SDS011;26392;42.696;23.350;2022-12-07T02:07:08;46.33;;;17.98;;
40707;SDS011;26392;42.696;23.350;2022-12-07T02:09:34;47.55;;;18.33;;
40707;SDS011;26392;42.696;23.350;2022-12-07T02:11:59;41.33;;;17.65;;
40707;SDS011;26392;42.696;23.350;2022-12-07T02:14:25;47.65;;;18.52;;
40707;SDS011;26392;42.696;23.350;2022-12-07T02:16:53;49.47;;;18.65;;
40707;SDS011;26392;42.696;23.350;2022-12-07T02:22:41;46.97;;;18.55;;
40707;SDS011;26392;42.696;23.350;2022-12-07T02:30:55;41.60;;;16.13;;
40707;SDS011;26392;42.696;23.350;2022-12-07T02:33:31;47.03;;;17.05;;
40707;SDS011;26392;42.696;23.350;2022-12-07T02:36:03;39.97;;;17.73;;
40707;SDS011;26392;42.696;23.350;2022-12-07T02:38:40;44.47;;;18.23;;
40707;SDS011;26392;42.696;23.350;2022-12-07T02:41:16;41.40;;;18.10;;
40707;SDS011;26392;42.696;23.350;2022-12-07T02:44:06;44.00;;;18.98;;
40707;SDS011;26392;42.696;23.350;2022-12-07T02:46:39;42.13;;;18.45;;
40707;SDS011;26392;42.696;23.350;2022-12-07T02:49:07;50.72;;;19.05;;
40707;SDS011;26392;42.696;23.350;2022-12-07T02:51:34;45.53;;;18.85;;
40707;SDS011;26392;42.696;23.350;2022-12-07T02:54:11;45.53;;;17.17;;
40707;SDS011;26392;42.696;23.350;2022-12-07T03:07:38;45.08;;;17.58;;
40707;SDS011;26392;42.696;23.350;2022-12-07T03:10:32;44.88;;;16.73;;
40707;SDS011;26392;42.696;23.350;2022-12-07T03:18:35;46.25;;;18.65;;
40707;SDS011;26392;42.696;23.350;2022-12-07T03:21:06;46.42;;;18.13;;
40707;SDS011;26392;42.696;23.350;2022-12-07T03:23:37;51.13;;;20.13;;
40707;SDS011;26392;42.696;23.350;2022-12-07T03:26:05;50.25;;;19.05;;
40707;SDS011;26392;42.696;23.350;2022-12-07T03:28:36;50.03;;;18.88;;
40707;SDS011;26392;42.696;23.350;2022-12-07T03:31:21;46.22;;;20.00;;
40707;SDS011;26392;42.696;23.350;2022-12-07T03:39:02;57.95;;;21.25;;
40707;SDS011;26392;42.696;23.350;2022-12-07T03:41:37;52.88;;;21.08;;
40707;SDS011;26392;42.696;23.350;2022-12-07T03:44:04;55.05;;;20.58;;
40707;SDS011;26392;42.696;23.350;2022-12-07T03:49:55;55.47;;;22.27;;
40707;SDS011;26392;42.696;23.350;2022-12-07T03:52:41;54.13;;;20.40;;
40707;SDS011;26392;42.696;23.350;2022-12-07T03:58:01;53.20;;;20.92;;
40707;SDS011;26392;42.696;23.350;2022-12-07T04:00:30;49.53;;;20.23;;
40707;SDS011;26392;42.696;23.350;2022-12-07T04:02:57;44.25;;;18.50;;
40707;SDS011;26392;42.696;23.350;2022-12-07T04:05:22;48.85;;;19.13;;
40707;SDS011;26392;42.696;23.350;2022-12-07T04:07:48;51.55;;;19.75;;
40707;SDS011;26392;42.696;23.350;2022-12-07T04:10:13;52.33;;;20.98;;
40707;SDS011;26392;42.696;23.350;2022-12-07T04:12:39;54.03;;;20.25;;
40707;SDS011;26392;42.696;23.350;2022-12-07T04:15:04;52.75;;;19.20;;
40707;SDS011;26392;42.696;23.350;2022-12-07T04:17:31;46.45;;;18.33;;
40707;SDS011;26392;42.696;23.350;2022-12-07T04:19:56;49.47;;;18.98;;
40707;SDS011;26392;42.696;23.350;2022-12-07T04:22:21;44.60;;;17.63;;
40707;SDS011;26392;42.696;23.350;2022-12-07T04:24:47;46.05;;;19.30;;
40707;SDS011;26392;42.696;23.350;2022-12-07T04:27:12;40.42;;;17.55;;
40707;SDS011;26392;42.696;23.350;2022-12-07T04:29:38;51.65;;;18.75;;
40707;SDS011;26392;42.696;23.350;2022-12-07T04:32:03;48.85;;;18.35;;
40707;SDS011;26392;42.696;23.350;2022-12-07T04:34:29;49.25;;;19.20;;
40707;SDS011;26392;42.696;23.350;2022-12-07T04:36:54;49.03;;;19.02;;
40707;SDS011;26392;42.696;23.350;2022-12-07T04:39:26;54.60;;;18.63;;
40707;SDS011;26392;42.696;23.350;2022-12-07T04:41:53;49.78;;;21.48;;
40707;SDS011;26392;42.696;23.350;2022-12-07T04:44:19;49.35;;;19.02;;
40707;SDS011;26392;42.696;23.350;2022-12-07T04:46:46;41.55;;;18.90;;
40707;SDS011;26392;42.696;23.350;2022-12-07T04:49:11;50.88;;;19.08;;
40707;SDS011;26392;42.696;23.350;2022-12-07T04:51:38;42.75;;;18.85;;
40707;SDS011;26392;42.696;23.350;2022-12-07T04:54:04;56.35;;;21.90;;
40707;SDS011;26392;42.696;23.350;2022-12-07T04:56:29;54.95;;;20.02;;
40707;SDS011;26392;42.696;23.350;2022-12-07T04:58:55;50.90;;;21.45;;
40707;SDS011;26392;42.696;23.350;2022-12-07T05:01:21;46.55;;;19.83;;
40707;SDS011;26392;42.696;23.350;2022-12-07T05:03:47;46.38;;;20.02;;
40707;SDS011;26392;42.696;23.350;2022-12-07T05:06:12;60.40;;;25.13;;
40707;SDS011;26392;42.696;23.350;2022-12-07T05:08:38;62.72;;;25.25;;
40707;SDS011;26392;42.696;23.350;2022-12-07T05:11:04;52.17;;;21.92;;
40707;SDS011;26392;42.696;23.350;2022-12-07T05:13:31;53.92;;;22.33;;
40707;SDS011;26392;42.696;23.350;2022-12-07T05:15:57;44.60;;;20.70;;
40707;SDS011;26392;42.696;23.350;2022-12-07T05:18:22;50.55;;;20.95;;
40707;SDS011;26392;42.696;23.350;2022-12-07T05:20:48;57.65;;;22.02;;
40707;SDS011;26392;42.696;23.350;2022-12-07T05:23:14;47.67;;;20.27;;
40707;SDS011;26392;42.696;23.350;2022-12-07T05:25:39;50.67;;;17.88;;
40707;SDS011;26392;42.696;23.350;2022-12-07T05:28:05;51.35;;;20.02;;
40707;SDS011;26392;42.696;23.350;2022-12-07T05:30:31;48.05;;;19.90;;
40707;SDS011;26392;42.696;23.350;2022-12-07T05:32:56;46.75;;;19.52;;
40707;SDS011;26392;42.696;23.350;2022-12-07T05:35:22;49.97;;;19.23;;
40707;SDS011;26392;42.696;23.350;2022-12-07T05:37:48;47.05;;;18.15;;
40707;SDS011;26392;42.696;23.350;2022-12-07T05:42:40;45.55;;;17.67;;
40707;SDS011;26392;42.696;23.350;2022-12-07T05:45:06;83.15;;;40.40;;
40707;SDS011;26392;42.696;23.350;2022-12-07T05:47:32;70.28;;;31.15;;
40707;SDS011;26392;42.696;23.350;2022-12-07T05:49:58;56.13;;;21.35;;
40707;SDS011;26392;42.696;23.350;2022-12-07T05:52:23;65.63;;;23.70;;
40707;SDS011;26392;42.696;23.350;2022-12-07T05:54:49;80.30;;;35.20;;
40707;SDS011;26392;42.696;23.350;2022-12-07T05:57:14;63.25;;;26.08;;
40707;SDS011;26392;42.696;23.350;2022-12-07T05:59:40;62.33;;;25.90;;
40707;SDS011;26392;42.696;23.350;2022-12-07T06:02:07;51.15;;;22.52;;
40707;SDS011;26392;42.696;23.350;2022-12-07T06:04:36;67.63;;;27.55;;
40707;SDS011;26392;42.696;23.350;2022-12-07T06:07:03;67.60;;;25.70;;
40707;SDS011;26392;42.696;23.350;2022-12-07T06:09:30;64.05;;;25.67;;
40707;SDS011;26392;42.696;23.350;2022-12-07T06:11:57;64.25;;;24.05;;
40707;SDS011;26392;42.696;23.350;2022-12-07T06:14:41;56.47;;;22.48;;
40707;SDS011;26392;42.696;23.350;2022-12-07T06:17:06;64.50;;;24.80;;
40707;SDS011;26392;42.696;23.350;2022-12-07T06:19:32;52.55;;;23.38;;
40707;SDS011;26392;42.696;23.350;2022-12-07T06:21:58;56.28;;;23.98;;
40707;SDS011;26392;42.696;23.350;2022-12-07T06:24:24;58.78;;;26.83;;
40707;SDS011;26392;42.696;23.350;2022-12-07T06:26:50;65.43;;;25.80;;
40707;SDS011;26392;42.696;23.350;2022-12-07T06:29:16;58.58;;;24.10;;
40707;SDS011;26392;42.696;23.350;2022-12-07T06:31:42;61.70;;;23.92;;
40707;SDS011;26392;42.696;23.350;2022-12-07T06:34:14;54.58;;;24.75;;
40707;SDS011;26392;42.696;23.350;2022-12-07T06:39:08;50.78;;;21.48;;
40707;SDS011;26392;42.696;23.350;2022-12-07T06:41:34;61.17;;;21.52;;
40707;SDS011;26392;42.696;23.350;2022-12-07T06:44:01;67.55;;;24.08;;
40707;SDS011;26392;42.696;23.350;2022-12-07T06:46:27;63.50;;;24.98;;
40707;SDS011;26392;42.696;23.350;2022-12-07T06:48:52;82.45;;;37.03;;
40707;SDS011;26392;42.696;23.350;2022-12-07T06:51:18;82.68;;;32.53;;
40707;SDS011;26392;42.696;23.350;2022-12-07T06:53:43;74.70;;;32.90;;
40707;SDS011;26392;42.696;23.350;2022-12-07T06:56:09;69.80;;;31.08;;
40707;SDS011;26392;42.696;23.350;2022-12-07T06:58:34;69.90;;;32.45;;
40707;SDS011;26392;42.696;23.350;2022-12-07T07:01:00;73.07;;;31.20;;
40707;SDS011;26392;42.696;23.350;2022-12-07T07:03:25;74.10;;;31.65;;
40707;SDS011;26392;42.696;23.350;2022-12-07T07:05:51;61.17;;;27.92;;
40707;SDS011;26392;42.696;23.350;2022-12-07T07:08:16;69.20;;;30.98;;
40707;SDS011;26392;42.696;23.350;2022-12-07T07:10:41;82.60;;;34.53;;
40707;SDS011;26392;42.696;23.350;2022-12-07T07:13:07;81.72;;;33.85;;
40707;SDS011;26392;42.696;23.350;2022-12-07T07:15:33;82.80;;;33.03;;
40707;SDS011;26392;42.696;23.350;2022-12-07T07:17:59;84.57;;;34.80;;
40707;SDS011;26392;42.696;23.350;2022-12-07T07:20:25;76.85;;;36.38;;
40707;SDS011;26392;42.696;23.350;2022-12-07T07:22:50;87.03;;;37.03;;
40707;SDS011;26392;42.696;23.350;2022-12-07T07:25:19;79.18;;;36.85;;
40707;SDS011;26392;42.696;23.350;2022-12-07T07:27:44;88.97;;;37.08;;
40707;SDS011;26392;42.696;23.350;2022-12-07T07:30:10;70.32;;;34.10;;
40707;SDS011;26392;42.696;23.350;2022-12-07T07:32:36;88.85;;;39.13;;
40707;SDS011;26392;42.696;23.350;2022-12-07T07:35:01;70.60;;;28.88;;
40707;SDS011;26392;42.696;23.350;2022-12-07T07:37:27;73.18;;;30.73;;
40707;SDS011;26392;42.696;23.350;2022-12-07T07:39:52;71.68;;;30.88;;
40707;SDS011;26392;42.696;23.350;2022-12-07T07:42:18;69.95;;;29.75;;
40707;SDS011;26392;42.696;23.350;2022-12-07T07:44:43;71.32;;;27.98;;
40707;SDS011;26392;42.696;23.350;2022-12-07T07:47:09;63.78;;;27.85;;
40707;SDS011;26392;42.696;23.350;2022-12-07T07:49:34;65.25;;;23.52;;
40707;SDS011;26392;42.696;23.350;2022-12-07T07:51:59;66.55;;;26.08;;
40707;SDS011;26392;42.696;23.350;2022-12-07T07:54:25;66.22;;;28.42;;
40707;SDS011;26392;42.696;23.350;2022-12-07T07:56:51;60.38;;;26.92;;
40707;SDS011;26392;42.696;23.350;2022-12-07T07:59:17;67.75;;;28.85;;
40707;SDS011;26392;42.696;23.350;2022-12-07T08:01:42;64.53;;;28.63;;
40707;SDS011;26392;42.696;23.350;2022-12-07T08:04:08;71.80;;;30.77;;
40707;SDS011;26392;42.696;23.350;2022-12-07T08:06:33;62.08;;;25.98;;
40707;SDS011;26392;42.696;23.350;2022-12-07T08:08:59;71.57;;;28.77;;
40707;SDS011;26392;42.696;23.350;2022-12-07T08:11:24;61.65;;;28.20;;
40707;SDS011;26392;42.696;23.350;2022-12-07T08:13:50;76.47;;;32.55;;
40707;SDS011;26392;42.696;23.350;2022-12-07T08:16:16;66.43;;;28.67;;
40707;SDS011;26392;42.696;23.350;2022-12-07T08:18:42;60.03;;;26.00;;
40707;SDS011;26392;42.696;23.350;2022-12-07T08:21:09;60.85;;;26.52;;
40707;SDS011;26392;42.696;23.350;2022-12-07T08:23:37;70.95;;;27.63;;
40707;SDS011;26392;42.696;23.350;2022-12-07T08:26:04;70.82;;;30.45;;
40707;SDS011;26392;42.696;23.350;2022-12-07T08:28:31;75.47;;;30.70;;
40707;SDS011;26392;42.696;23.350;2022-12-07T08:31:01;74.82;;;29.70;;
40707;SDS011;26392;42.696;23.350;2022-12-07T08:33:30;75.07;;;29.52;;
40707;SDS011;26392;42.696;23.350;2022-12-07T08:36:03;78.90;;;30.90;;
40707;SDS011;26392;42.696;23.350;2022-12-07T08:38:30;72.15;;;29.65;;
40707;SDS011;26392;42.696;23.350;2022-12-07T08:40:56;70.53;;;30.00;;
40707;SDS011;26392;42.696;23.350;2022-12-07T08:43:22;76.70;;;30.88;;
40707;SDS011;26392;42.696;23.350;2022-12-07T08:45:49;67.40;;;28.90;;
40707;SDS011;26392;42.696;23.350;2022-12-07T08:48:23;71.93;;;27.23;;
40707;SDS011;26392;42.696;23.350;2022-12-07T08:50:50;63.30;;;25.00;;
40707;SDS011;26392;42.696;23.350;2022-12-07T08:53:16;65.07;;;26.90;;
40707;SDS011;26392;42.696;23.350;2022-12-07T08:55:42;67.55;;;26.48;;
40707;SDS011;26392;42.696;23.350;2022-12-07T08:58:10;66.85;;;26.48;;
40707;SDS011;26392;42.696;23.350;2022-12-07T09:00:35;65.80;;;26.50;;
40707;SDS011;26392;42.696;23.350;2022-12-07T09:03:01;58.83;;;25.38;;
40707;SDS011;26392;42.696;23.350;2022-12-07T09:05:26;73.93;;;28.27;;
40707;SDS011;26392;42.696;23.350;2022-12-07T09:07:52;71.28;;;29.90;;
40707;SDS011;26392;42.696;23.350;2022-12-07T09:10:23;91.57;;;38.78;;
40707;SDS011;26392;42.696;23.350;2022-12-07T09:12:48;90.82;;;39.58;;
40707;SDS011;26392;42.696;23.350;2022-12-07T09:15:14;92.57;;;40.45;;
40707;SDS011;26392;42.696;23.350;2022-12-07T09:17:39;88.60;;;38.65;;
40707;SDS011;26392;42.696;23.350;2022-12-07T09:20:05;125.03;;;55.75;;
40707;SDS011;26392;42.696;23.350;2022-12-07T09:22:31;94.03;;;42.20;;
40707;SDS011;26392;42.696;23.350;2022-12-07T09:24:57;102.28;;;39.67;;
40707;SDS011;26392;42.696;23.350;2022-12-07T09:27:23;87.22;;;36.08;;
40707;SDS011;26392;42.696;23.350;2022-12-07T09:29:49;89.43;;;35.55;;
40707;SDS011;26392;42.696;23.350;2022-12-07T09:32:14;92.95;;;34.65;;
40707;SDS011;26392;42.696;23.350;2022-12-07T09:34:40;82.43;;;36.60;;
40707;SDS011;26392;42.696;23.350;2022-12-07T09:37:05;83.20;;;35.20;;
40707;SDS011;26392;42.696;23.350;2022-12-07T09:39:31;84.20;;;34.25;;
40707;SDS011;26392;42.696;23.350;2022-12-07T09:41:58;78.63;;;32.60;;
40707;SDS011;26392;42.696;23.350;2022-12-07T09:44:28;80.43;;;34.20;;
40707;SDS011;26392;42.696;23.350;2022-12-07T09:46:53;74.72;;;32.05;;
40707;SDS011;26392;42.696;23.350;2022-12-07T09:49:22;71.70;;;30.52;;
40707;SDS011;26392;42.696;23.350;2022-12-07T09:54:35;58.78;;;26.10;;
40707;SDS011;26392;42.696;23.350;2022-12-07T09:57:04;72.55;;;26.88;;
40707;SDS011;26392;42.696;23.350;2022-12-07T09:59:30;60.72;;;26.70;;
40707;SDS011;26392;42.696;23.350;2022-12-07T10:01:55;67.90;;;27.08;;
40707;SDS011;26392;42.696;23.350;2022-12-07T10:04:49;62.83;;;26.65;;
40707;SDS011;26392;42.696;23.350;2022-12-07T10:07:15;62.88;;;26.67;;
40707;SDS011;26392;42.696;23.350;2022-12-07T10:09:40;73.03;;;29.13;;
40707;SDS011;26392;42.696;23.350;2022-12-07T10:12:10;71.03;;;27.92;;
40707;SDS011;26392;42.696;23.350;2022-12-07T10:14:38;67.45;;;27.70;;
40707;SDS011;26392;42.696;23.350;2022-12-07T10:20:12;46.40;;;21.95;;
40707;SDS011;26392;42.696;23.350;2022-12-07T10:25:22;46.08;;;20.98;;
40707;SDS011;26392;42.696;23.350;2022-12-07T10:27:58;48.95;;;22.77;;
40707;SDS011;26392;42.696;23.350;2022-12-07T10:30:25;56.85;;;21.50;;
40707;SDS011;26392;42.696;23.350;2022-12-07T10:32:50;51.42;;;22.23;;
40707;SDS011;26392;42.696;23.350;2022-12-07T10:37:53;52.63;;;20.65;;
40707;SDS011;26392;42.696;23.350;2022-12-07T10:45:41;41.10;;;18.98;;
40707;SDS011;26392;42.696;23.350;2022-12-07T10:48:16;50.95;;;20.38;;
40707;SDS011;26392;42.696;23.350;2022-12-07T10:54:10;41.75;;;17.92;;
40707;SDS011;26392;42.696;23.350;2022-12-07T11:04:08;55.08;;;22.70;;
40707;SDS011;26392;42.696;23.350;2022-12-07T11:09:25;48.00;;;22.27;;
40707;SDS011;26392;42.696;23.350;2022-12-07T11:17:51;46.40;;;20.25;;
40707;SDS011;26392;42.696;23.350;2022-12-07T11:33:59;36.70;;;15.73;;
40707;SDS011;26392;42.696;23.350;2022-12-07T11:41:47;49.05;;;15.13;;
40707;SDS011;26392;42.696;23.350;2022-12-07T11:47:18;31.17;;;13.20;;
40707;SDS011;26392;42.696;23.350;2022-12-07T11:49:54;31.13;;;14.63;;
40707;SDS011;26392;42.696;23.350;2022-12-07T11:52:29;32.03;;;14.60;;
40707;SDS011;26392;42.696;23.350;2022-12-07T11:55:05;30.77;;;12.98;;
40707;SDS011;26392;42.696;23.350;2022-12-07T11:57:41;34.33;;;14.60;;
40707;SDS011;26392;42.696;23.350;2022-12-07T12:00:15;42.05;;;17.15;;
40707;SDS011;26392;42.696;23.350;2022-12-07T12:03:08;41.80;;;16.25;;
40707;SDS011;26392;42.696;23.350;2022-12-07T12:05:40;35.58;;;16.65;;
40707;SDS011;26392;42.696;23.350;2022-12-07T12:10:55;48.92;;;17.27;;
40707;SDS011;26392;42.696;23.350;2022-12-07T12:13:29;36.95;;;15.55;;
40707;SDS011;26392;42.696;23.350;2022-12-07T12:22:12;33.10;;;15.57;;
40707;SDS011;26392;42.696;23.350;2022-12-07T12:24:43;38.88;;;15.65;;
40707;SDS011;26392;42.696;23.350;2022-12-07T12:30:03;42.65;;;14.88;;
40707;SDS011;26392;42.696;23.350;2022-12-07T12:40:50;40.50;;;17.10;;
40707;SDS011;26392;42.696;23.350;2022-12-07T13:01:46;44.08;;;18.33;;
40707;SDS011;26392;42.696;23.350;2022-12-07T13:04:24;35.38;;;15.52;;
40707;SDS011;26392;42.696;23.350;2022-12-07T13:10:20;35.55;;;15.50;;
40707;SDS011;26392;42.696;23.350;2022-12-07T13:12:59;34.20;;;15.07;;
40707;SDS011;26392;42.696;23.350;2022-12-07T13:15:38;31.15;;;14.25;;
40707;SDS011;26392;42.696;23.350;2022-12-07T13:20:55;33.28;;;14.05;;
40707;SDS011;26392;42.696;23.350;2022-12-07T13:23:35;38.53;;;14.75;;
40707;SDS011;26392;42.696;23.350;2022-12-07T13:29:13;35.58;;;15.57;;
40707;SDS011;26392;42.696;23.350;2022-12-07T13:36:54;32.38;;;14.63;;
40707;SDS011;26392;42.696;23.350;2022-12-07T13:39:20;34.40;;;15.02;;
40707;SDS011;26392;42.696;23.350;2022-12-07T13:42:06;31.65;;;15.38;;
40707;SDS011;26392;42.696;23.350;2022-12-07T13:44:40;30.13;;;14.23;;
40707;SDS011;26392;42.696;23.350;2022-12-07T13:47:09;37.85;;;15.38;;
40707;SDS011;26392;42.696;23.350;2022-12-07T13:49:55;32.65;;;14.93;;
40707;SDS011;26392;42.696;23.350;2022-12-07T13:52:22;40.95;;;15.88;;
40707;SDS011;26392;42.696;23.350;2022-12-07T13:54:56;33.03;;;15.13;;
40707;SDS011;26392;42.696;23.350;2022-12-07T13:57:24;38.80;;;14.48;;
40707;SDS011;26392;42.696;23.350;2022-12-07T13:59:51;28.38;;;13.40;;
40707;SDS011;26392;42.696;23.350;2022-12-07T14:02:26;38.75;;;15.48;;
40707;SDS011;26392;42.696;23.350;2022-12-07T14:05:05;33.35;;;14.57;;
40707;SDS011;26392;42.696;23.350;2022-12-07T14:10:29;36.05;;;15.32;;
40707;SDS011;26392;42.696;23.350;2022-12-07T14:12:57;32.33;;;15.82;;
40707;SDS011;26392;42.696;23.350;2022-12-07T14:15:24;29.58;;;13.52;;
40707;SDS011;26392;42.696;23.350;2022-12-07T14:17:54;39.63;;;14.48;;
40707;SDS011;26392;42.696;23.350;2022-12-07T14:20:34;27.77;;;13.65;;
40707;SDS011;26392;42.696;23.350;2022-12-07T14:22:59;33.45;;;14.68;;
40707;SDS011;26392;42.696;23.350;2022-12-07T14:25:34;38.58;;;15.18;;
40707;SDS011;26392;42.696;23.350;2022-12-07T14:28:32;36.78;;;15.38;;
40707;SDS011;26392;42.696;23.350;2022-12-07T14:31:00;39.67;;;15.25;;
40707;SDS011;26392;42.696;23.350;2022-12-07T14:33:26;38.92;;;15.38;;
40707;SDS011;26392;42.696;23.350;2022-12-07T14:35:52;42.55;;;18.17;;
40707;SDS011;26392;42.696;23.350;2022-12-07T14:38:20;36.42;;;15.38;;
40707;SDS011;26392;42.696;23.350;2022-12-07T14:40:46;32.90;;;14.77;;
40707;SDS011;26392;42.696;23.350;2022-12-07T14:43:13;43.55;;;17.42;;
40707;SDS011;26392;42.696;23.350;2022-12-07T14:45:41;37.40;;;15.98;;
40707;SDS011;26392;42.696;23.350;2022-12-07T14:48:14;45.15;;;16.67;;
40707;SDS011;26392;42.696;23.350;2022-12-07T14:50:41;36.53;;;15.70;;
40707;SDS011;26392;42.696;23.350;2022-12-07T14:53:17;48.45;;;17.20;;
40707;SDS011;26392;42.696;23.350;2022-12-07T14:55:46;49.03;;;17.10;;
40707;SDS011;26392;42.696;23.350;2022-12-07T14:58:15;35.30;;;15.57;;
40707;SDS011;26392;42.696;23.350;2022-12-07T15:00:42;43.60;;;15.73;;
40707;SDS011;26392;42.696;23.350;2022-12-07T15:03:07;42.25;;;16.95;;
40707;SDS011;26392;42.696;23.350;2022-12-07T15:05:33;40.40;;;16.60;;
40707;SDS011;26392;42.696;23.350;2022-12-07T15:07:59;43.70;;;16.02;;
40707;SDS011;26392;42.696;23.350;2022-12-07T15:10:26;42.92;;;17.92;;
40707;SDS011;26392;42.696;23.350;2022-12-07T15:12:55;51.65;;;17.75;;
40707;SDS011;26392;42.696;23.350;2022-12-07T15:15:41;37.35;;;15.93;;
40707;SDS011;26392;42.696;23.350;2022-12-07T15:18:06;45.25;;;16.67;;
40707;SDS011;26392;42.696;23.350;2022-12-07T15:20:32;55.85;;;20.02;;
40707;SDS011;26392;42.696;23.350;2022-12-07T15:22:57;52.42;;;19.55;;
40707;SDS011;26392;42.696;23.350;2022-12-07T15:25:22;44.40;;;19.23;;
40707;SDS011;26392;42.696;23.350;2022-12-07T15:27:48;68.55;;;26.80;;
40707;SDS011;26392;42.696;23.350;2022-12-07T15:30:13;62.58;;;25.73;;
40707;SDS011;26392;42.696;23.350;2022-12-07T15:32:39;64.10;;;24.88;;
40707;SDS011;26392;42.696;23.350;2022-12-07T15:35:04;72.07;;;25.35;;
40707;SDS011;26392;42.696;23.350;2022-12-07T15:37:30;75.47;;;27.60;;
40707;SDS011;26392;42.696;23.350;2022-12-07T15:39:55;66.15;;;26.75;;
40707;SDS011;26392;42.696;23.350;2022-12-07T15:42:20;68.20;;;22.23;;
40707;SDS011;26392;42.696;23.350;2022-12-07T15:44:46;54.17;;;21.00;;
40707;SDS011;26392;42.696;23.350;2022-12-07T15:47:50;57.13;;;19.77;;
40707;SDS011;26392;42.696;23.350;2022-12-07T15:50:15;44.83;;;19.90;;
40707;SDS011;26392;42.696;23.350;2022-12-07T15:52:41;55.70;;;19.75;;
40707;SDS011;26392;42.696;23.350;2022-12-07T15:55:07;54.00;;;21.75;;
40707;SDS011;26392;42.696;23.350;2022-12-07T15:57:34;54.47;;;19.17;;
40707;SDS011;26392;42.696;23.350;2022-12-07T16:00:02;50.90;;;18.30;;
40707;SDS011;26392;42.696;23.350;2022-12-07T16:02:28;46.60;;;18.27;;
40707;SDS011;26392;42.696;23.350;2022-12-07T16:04:54;39.92;;;18.42;;
40707;SDS011;26392;42.696;23.350;2022-12-07T16:07:19;49.17;;;18.25;;
40707;SDS011;26392;42.696;23.350;2022-12-07T16:09:45;53.90;;;20.05;;
40707;SDS011;26392;42.696;23.350;2022-12-07T16:12:11;53.42;;;20.13;;
40707;SDS011;26392;42.696;23.350;2022-12-07T16:14:38;50.35;;;19.75;;
40707;SDS011;26392;42.696;23.350;2022-12-07T16:17:04;64.43;;;20.42;;
40707;SDS011;26392;42.696;23.350;2022-12-07T16:19:30;54.53;;;21.52;;
40707;SDS011;26392;42.696;23.350;2022-12-07T16:21:56;58.15;;;22.75;;
40707;SDS011;26392;42.696;23.350;2022-12-07T16:24:22;63.85;;;22.80;;
40707;SDS011;26392;42.696;23.350;2022-12-07T16:26:47;76.88;;;32.22;;
40707;SDS011;26392;42.696;23.350;2022-12-07T16:29:14;81.63;;;31.02;;
40707;SDS011;26392;42.696;23.350;2022-12-07T16:31:41;99.60;;;42.45;;
40707;SDS011;26392;42.696;23.350;2022-12-07T16:34:06;84.38;;;35.60;;
40707;SDS011;26392;42.696;23.350;2022-12-07T16:36:32;90.47;;;32.22;;
40707;SDS011;26392;42.696;23.350;2022-12-07T16:38:58;85.93;;;30.77;;
40707;SDS011;26392;42.696;23.350;2022-12-07T16:41:25;82.18;;;31.02;;
40707;SDS011;26392;42.696;23.350;2022-12-07T16:43:50;93.25;;;34.67;;
40707;SDS011;26392;42.696;23.350;2022-12-07T16:46:16;87.95;;;35.35;;
40707;SDS011;26392;42.696;23.350;2022-12-07T16:48:42;125.72;;;46.70;;
40707;SDS011;26392;42.696;23.350;2022-12-07T16:51:08;109.05;;;39.17;;
40707;SDS011;26392;42.696;23.350;2022-12-07T16:53:36;103.07;;;39.90;;
40707;SDS011;26392;42.696;23.350;2022-12-07T16:56:03;90.53;;;36.47;;
40707;SDS011;26392;42.696;23.350;2022-12-07T16:58:29;97.07;;;37.78;;